Time,TemperatureF,DewpointF,PressureIn,WindDirection,WindDirectionDegrees,WindSpeedMPH,WindSpeedGustMPH,Humidity,HourlyPrecipIn,Conditions,Clouds,dailyrainin,SolarRadiationWatts/m^2,SoftwareType,DateUTC
2015-05-03 00:02:00,58.4,54.2,29.81,SSE,164,0.0,0.0,86,0.05,,,0.01,0.00,VWS V14.00,2015-05-03 05:02:00,
2015-05-03 00:07:00,58.1,54.3,29.80,SSE,164,0.0,0.0,87,0.06,,,0.02,0.00,VWS V14.00,2015-05-03 05:07:00,
2015-05-03 00:12:00,57.9,54.1,29.80,SSE,165,0.0,0.0,87,0.06,,,0.02,0.00,VWS V14.00,2015-05-03 05:12:00,
2015-05-03 00:17:00,57.7,54.2,29.81,South,188,0.0,0.0,88,0.06,,,0.02,0.00,VWS V14.00,2015-05-03 05:17:00,
2015-05-03 00:22:00,57.6,54.4,29.81,South,189,0.0,0.0,89,0.06,,,0.02,0.00,VWS V14.00,2015-05-03 05:22:00,
2015-05-03 00:27:00,57.5,54.3,29.81,SE,129,0.0,0.0,89,0.06,,,0.02,0.00,VWS V14.00,2015-05-03 05:27:00,
2015-05-03 00:32:00,57.3,54.1,29.81,ESE,109,0.0,0.0,89,0.06,,,0.02,0.00,VWS V14.00,2015-05-03 05:32:00,
2015-05-03 00:37:00,57.2,54.3,29.81,ESE,118,4.0,4.0,90,0.06,,,0.02,0.00,VWS V14.00,2015-05-03 05:37:00,
2015-05-03 00:42:00,57.2,54.0,29.81,SE,133,1.0,1.0,89,0.06,,,0.02,0.00,VWS V14.00,2015-05-03 05:42:00,
2015-05-03 00:47:00,57.4,54.2,29.81,ESE,113,2.0,8.0,89,0.05,,,0.02,0.00,VWS V14.00,2015-05-03 05:47:00,
2015-05-03 00:52:00,57.5,54.0,29.81,SSE,147,1.0,5.0,88,0.05,,,0.02,0.00,VWS V14.00,2015-05-03 05:52:00,
2015-05-03 00:57:00,57.4,53.9,29.80,SSE,152,2.0,5.0,88,0.02,,,0.02,0.00,VWS V14.00,2015-05-03 05:57:00,
2015-05-03 01:02:00,57.4,53.9,29.80,SE,142,0.0,4.0,88,0.01,,,0.02,0.00,VWS V14.00,2015-05-03 06:02:00,
2015-05-03 01:07:00,57.4,53.9,29.80,SSE,165,0.0,5.0,88,0.00,,,0.02,0.00,VWS V14.00,2015-05-03 06:07:00,
2015-05-03 01:12:00,57.3,53.8,29.80,SSE,163,4.0,4.0,88,0.00,,,0.02,0.00,VWS V14.00,2015-05-03 06:12:00,
2015-05-03 01:17:00,57.2,53.7,29.80,South,185,4.0,7.0,88,0.00,,,0.02,0.00,VWS V14.00,2015-05-03 06:17:00,
2015-05-03 01:22:00,57.2,53.7,29.80,South,171,0.0,0.0,88,0.00,,,0.02,0.00,VWS V14.00,2015-05-03 06:22:00,
2015-05-03 01:27:00,57.2,53.7,29.80,South,172,0.0,0.0,88,0.00,,,0.02,0.00,VWS V14.00,2015-05-03 06:27:00,
2015-05-03 01:32:00,57.2,53.7,29.80,South,170,0.0,2.0,88,0.00,,,0.02,0.00,VWS V14.00,2015-05-03 06:32:00,
2015-05-03 01:37:00,57.2,53.7,29.79,South,180,0.0,2.0,88,0.00,,,0.02,0.00,VWS V14.00,2015-05-03 06:37:00,
2015-05-03 01:42:00,57.2,53.7,29.79,South,175,5.0,6.0,88,0.00,,,0.02,0.00,VWS V14.00,2015-05-03 06:42:00,
2015-05-03 01:47:00,57.4,53.6,29.78,South,172,6.0,6.0,87,0.00,,,0.02,0.00,VWS V14.00,2015-05-03 06:47:00,
2015-05-03 01:52:00,57.6,53.8,29.78,SSE,158,4.0,7.0,87,0.00,,,0.02,0.00,VWS V14.00,2015-05-03 06:52:00,
2015-05-03 01:57:00,57.6,53.5,29.79,South,179,0.0,0.0,86,0.00,,,0.02,0.00,VWS V14.00,2015-05-03 06:57:00,
2015-05-03 02:02:00,57.7,53.5,29.78,South,169,0.0,0.0,86,0.00,,,0.02,0.00,VWS V14.00,2015-05-03 07:02:00,
2015-05-03 02:07:00,57.7,53.2,29.78,South,169,0.0,1.0,85,0.00,,,0.02,0.00,VWS V14.00,2015-05-03 07:07:00,
2015-05-03 02:12:00,57.7,53.2,29.78,South,169,0.0,0.0,85,0.00,,,0.02,0.00,VWS V14.00,2015-05-03 07:12:00,
2015-05-03 02:17:00,57.8,53.3,29.79,South,169,0.0,0.0,85,0.00,,,0.02,0.00,VWS V14.00,2015-05-03 07:17:00,
2015-05-03 02:22:00,57.7,53.2,29.79,South,169,0.0,0.0,85,0.00,,,0.02,0.00,VWS V14.00,2015-05-03 07:22:00,
2015-05-03 02:27:00,57.7,53.2,29.79,South,169,0.0,0.0,85,0.00,,,0.02,0.00,VWS V14.00,2015-05-03 07:27:00,
2015-05-03 02:32:00,57.6,53.1,29.79,South,169,0.0,0.0,85,0.00,,,0.02,0.00,VWS V14.00,2015-05-03 07:32:00,
2015-05-03 02:37:00,57.5,53.3,29.80,South,169,0.0,0.0,86,0.00,,,0.02,0.00,VWS V14.00,2015-05-03 07:37:00,
2015-05-03 02:42:00,57.4,53.2,29.79,South,169,0.0,0.0,86,0.00,,,0.02,0.00,VWS V14.00,2015-05-03 07:42:00,
2015-05-03 02:47:00,57.4,53.2,29.79,South,169,0.0,0.0,86,0.00,,,0.02,0.00,VWS V14.00,2015-05-03 07:47:00,
2015-05-03 02:52:00,57.3,53.2,29.79,South,169,0.0,0.0,86,0.00,,,0.02,0.00,VWS V14.00,2015-05-03 07:52:00,
2015-05-03 02:57:00,57.4,53.2,29.78,South,169,0.0,0.0,86,0.00,,,0.02,0.00,VWS V14.00,2015-05-03 07:57:00,
2015-05-03 03:02:00,57.5,53.3,29.77,SSE,167,0.0,0.0,86,0.00,,,0.02,0.00,VWS V14.00,2015-05-03 08:02:00,
2015-05-03 03:07:00,57.7,53.2,29.77,SSE,161,1.0,1.0,85,0.00,,,0.02,0.00,VWS V14.00,2015-05-03 08:07:00,
2015-05-03 03:12:00,57.9,53.4,29.77,SSE,163,0.0,0.0,85,0.00,,,0.02,0.00,VWS V14.00,2015-05-03 08:12:00,
2015-05-03 03:17:00,58.2,53.7,29.77,SSE,160,0.0,0.0,85,0.00,,,0.02,0.00,VWS V14.00,2015-05-03 08:17:00,
2015-05-03 03:22:00,58.6,54.1,29.77,SSE,150,4.0,5.0,85,0.00,,,0.02,0.00,VWS V14.00,2015-05-03 08:22:00,
2015-05-03 03:27:00,58.9,54.1,29.76,SE,141,6.0,6.0,84,0.00,,,0.02,0.00,VWS V14.00,2015-05-03 08:27:00,
2015-05-03 03:32:00,59.2,54.4,29.76,SSE,166,0.0,0.0,84,0.00,,,0.02,0.00,VWS V14.00,2015-05-03 08:32:00,
2015-05-03 03:37:00,59.4,54.6,29.76,SSE,150,0.0,0.0,84,0.00,,,0.02,0.00,VWS V14.00,2015-05-03 08:37:00,
2015-05-03 03:41:00,59.7,54.9,29.76,South,172,0.0,0.0,84,0.00,,,0.02,0.00,VWS V14.00,2015-05-03 08:41:00,
2015-05-03 03:46:00,60.1,54.9,29.76,SSE,167,4.0,4.0,83,0.00,,,0.02,0.00,VWS V14.00,2015-05-03 08:46:00,
2015-05-03 03:51:00,60.4,55.2,29.76,South,172,5.0,5.0,83,0.00,,,0.02,0.00,VWS V14.00,2015-05-03 08:51:00,
2015-05-03 03:56:00,60.8,55.3,29.75,SW,231,4.0,4.0,82,0.00,,,0.02,0.00,VWS V14.00,2015-05-03 08:56:00,
2015-05-03 04:01:00,61.5,55.6,29.75,South,179,2.0,4.0,81,0.00,,,0.02,0.00,VWS V14.00,2015-05-03 09:01:00,
2015-05-03 04:06:00,61.7,55.8,29.75,South,189,0.0,0.0,81,0.00,,,0.02,0.00,VWS V14.00,2015-05-03 09:06:00,
2015-05-03 04:11:00,61.9,56.0,29.75,SSW,211,3.0,5.0,81,0.00,,,0.02,0.00,VWS V14.00,2015-05-03 09:11:00,
2015-05-03 04:16:00,62.0,56.1,29.75,SSW,202,3.0,3.0,81,0.00,,,0.02,0.00,VWS V14.00,2015-05-03 09:16:00,
2015-05-03 04:21:00,62.1,56.2,29.75,SSW,192,2.0,2.0,81,0.00,,,0.02,0.00,VWS V14.00,2015-05-03 09:21:00,
2015-05-03 04:26:00,62.2,56.0,29.75,South,171,0.0,0.0,80,0.00,,,0.02,0.00,VWS V14.00,2015-05-03 09:26:00,
2015-05-03 04:31:00,62.2,56.3,29.74,South,169,0.0,0.0,81,0.00,,,0.02,0.00,VWS V14.00,2015-05-03 09:31:00,
2015-05-03 04:36:00,62.0,56.1,29.74,South,169,0.0,0.0,81,0.00,,,0.02,0.00,VWS V14.00,2015-05-03 09:36:00,
2015-05-03 04:41:00,61.8,56.2,29.74,South,169,0.0,0.0,82,0.00,,,0.02,0.00,VWS V14.00,2015-05-03 09:41:00,
2015-05-03 04:46:00,61.5,55.6,29.74,South,169,0.0,0.0,81,0.00,,,0.02,0.00,VWS V14.00,2015-05-03 09:46:00,
2015-05-03 04:51:00,61.6,56.1,29.73,SSW,198,1.0,2.0,82,0.00,,,0.02,0.00,VWS V14.00,2015-05-03 09:51:00,
2015-05-03 04:56:00,61.8,55.6,29.72,SSW,207,2.0,2.0,80,0.00,,,0.02,0.00,VWS V14.00,2015-05-03 09:56:00,
2015-05-03 05:01:00,63.1,55.8,29.71,SW,214,7.0,7.0,77,0.00,,,0.02,0.00,VWS V14.00,2015-05-03 10:01:00,
2015-05-03 05:11:00,64.0,55.9,29.72,SSW,200,7.0,8.0,75,0.00,,,0.02,0.00,VWS V14.00,2015-05-03 10:11:00,
2015-05-03 05:16:00,64.2,55.8,29.72,SSW,202,6.0,6.0,74,0.00,,,0.02,0.00,VWS V14.00,2015-05-03 10:16:00,
2015-05-03 05:21:00,64.5,55.7,29.72,SSW,212,6.0,9.0,73,0.00,,,0.02,0.00,VWS V14.00,2015-05-03 10:21:00,
2015-05-03 05:26:00,64.8,55.6,29.72,SSW,202,4.0,8.0,72,0.00,,,0.02,0.00,VWS V14.00,2015-05-03 10:26:00,
2015-05-03 05:31:00,65.0,55.8,29.72,SSW,205,4.0,6.0,72,0.00,,,0.02,0.00,VWS V14.00,2015-05-03 10:31:00,
2015-05-03 05:36:00,64.8,56.0,29.72,SSW,202,6.0,10.0,73,0.00,,,0.02,0.00,VWS V14.00,2015-05-03 10:36:00,
2015-05-03 05:41:00,64.4,55.9,29.71,SSW,209,6.0,10.0,74,0.00,,,0.02,0.00,VWS V14.00,2015-05-03 10:41:00,
2015-05-03 05:46:00,63.9,56.2,29.70,SSW,200,4.0,4.0,76,0.00,,,0.02,0.00,VWS V14.00,2015-05-03 10:46:00,
2015-05-03 05:51:00,63.5,56.2,29.70,SSW,206,4.0,6.0,77,0.00,,,0.02,0.00,VWS V14.00,2015-05-03 10:51:00,
2015-05-03 05:56:00,63.4,56.1,29.70,SSW,205,6.0,8.0,77,0.00,,,0.02,0.00,VWS V14.00,2015-05-03 10:56:00,
2015-05-03 06:01:00,63.5,56.2,29.71,SSW,198,6.0,7.0,77,0.00,,,0.02,0.00,VWS V14.00,2015-05-03 11:01:00,
2015-05-03 06:06:00,63.6,56.3,29.71,SSW,202,5.0,7.0,77,0.00,,,0.02,0.00,VWS V14.00,2015-05-03 11:06:00,
2015-05-03 06:11:00,63.6,56.3,29.72,SSW,211,2.0,6.0,77,0.00,,,0.02,0.00,VWS V14.00,2015-05-03 11:11:00,
2015-05-03 06:16:00,63.5,56.5,29.74,SSW,210,0.0,4.0,78,0.00,,,0.02,0.00,VWS V14.00,2015-05-03 11:16:00,
2015-05-03 06:21:00,63.3,56.3,29.75,SSW,209,0.0,0.0,78,0.00,,,0.02,0.00,VWS V14.00,2015-05-03 11:21:00,
2015-05-03 06:26:00,63.0,56.4,29.74,SSW,210,0.0,0.0,79,0.00,,,0.02,7.00,VWS V14.00,2015-05-03 11:26:00,
2015-05-03 06:31:00,62.6,56.3,29.73,SSW,209,0.0,0.0,80,0.00,,,0.02,11.00,VWS V14.00,2015-05-03 11:31:00,
2015-05-03 06:36:00,62.4,56.2,29.74,SSW,209,0.0,0.0,80,0.00,,,0.02,14.00,VWS V14.00,2015-05-03 11:36:00,
2015-05-03 06:41:00,62.1,56.2,29.73,SSE,165,4.0,5.0,81,0.00,,,0.02,14.00,VWS V14.00,2015-05-03 11:41:00,
2015-05-03 06:46:00,61.9,56.0,29.72,SE,146,4.0,5.0,81,0.00,,,0.02,14.00,VWS V14.00,2015-05-03 11:46:00,
2015-05-03 06:51:00,61.8,56.2,29.74,WNW,284,3.0,5.0,82,0.00,,,0.02,18.00,VWS V14.00,2015-05-03 11:51:00,
2015-05-03 06:56:00,61.6,56.1,29.74,WNW,285,0.0,4.0,82,0.00,,,0.02,23.00,VWS V14.00,2015-05-03 11:56:00,
2015-05-03 07:01:00,61.4,56.2,29.75,WNW,284,0.0,0.0,83,0.00,,,0.02,30.00,VWS V14.00,2015-05-03 12:01:00,
2015-05-03 07:06:00,61.3,56.4,29.75,NNE,26,0.0,3.0,84,0.00,,,0.02,42.00,VWS V14.00,2015-05-03 12:06:00,
2015-05-03 07:11:00,61.3,56.4,29.76,NNE,26,0.0,0.0,84,0.00,,,0.02,40.00,VWS V14.00,2015-05-03 12:11:00,
2015-05-03 07:16:00,61.3,56.4,29.76,ENE,59,0.0,4.0,84,0.00,,,0.02,40.00,VWS V14.00,2015-05-03 12:16:00,
2015-05-03 07:21:00,61.2,56.7,29.76,ENE,59,0.0,0.0,85,0.00,,,0.02,51.00,VWS V14.00,2015-05-03 12:21:00,
2015-05-03 07:26:00,61.1,56.9,29.76,ENE,59,0.0,1.0,86,0.00,,,0.02,62.00,VWS V14.00,2015-05-03 12:26:00,
2015-05-03 07:31:00,61.0,56.8,29.76,ENE,60,0.0,0.0,86,0.00,,,0.02,76.00,VWS V14.00,2015-05-03 12:31:00,
2015-05-03 07:36:00,61.1,57.2,29.77,ENE,60,0.0,0.0,87,0.00,,,0.02,79.00,VWS V14.00,2015-05-03 12:36:00,
2015-05-03 07:41:00,61.1,57.2,29.77,ENE,59,0.0,1.0,87,0.00,,,0.02,79.00,VWS V14.00,2015-05-03 12:41:00,
2015-05-03 07:46:00,61.2,57.3,29.76,ENE,61,0.0,0.0,87,0.00,,,0.02,84.00,VWS V14.00,2015-05-03 12:46:00,
2015-05-03 07:51:00,61.3,57.4,29.76,ENE,60,0.0,0.0,87,0.00,,,0.02,88.00,VWS V14.00,2015-05-03 12:51:00,
2015-05-03 07:56:00,61.4,57.5,29.76,ENE,59,0.0,0.0,87,0.00,,,0.02,83.00,VWS V14.00,2015-05-03 12:56:00,
2015-05-03 08:01:00,61.5,57.6,29.76,ENE,61,0.0,0.0,87,0.00,,,0.02,299.00,VWS V14.00,2015-05-03 13:01:00,
2015-05-03 08:06:00,62.1,58.2,29.77,ENE,60,0.0,1.0,87,0.00,,,0.02,250.00,VWS V14.00,2015-05-03 13:06:00,
2015-05-03 08:11:00,62.6,58.4,29.77,ENE,59,0.0,0.0,86,0.00,,,0.02,292.00,VWS V14.00,2015-05-03 13:11:00,
2015-05-03 08:16:00,63.2,58.6,29.77,East,87,1.0,2.0,85,0.00,,,0.02,323.00,VWS V14.00,2015-05-03 13:16:00,
2015-05-03 08:21:00,63.8,59.2,29.77,South,173,0.0,5.0,85,0.00,,,0.02,345.00,VWS V14.00,2015-05-03 13:21:00,
2015-05-03 08:26:00,64.4,59.1,29.77,SSE,165,1.0,4.0,83,0.00,,,0.02,359.00,VWS V14.00,2015-05-03 13:26:00,
2015-05-03 08:31:00,64.9,59.3,29.77,SSE,166,0.0,5.0,82,0.00,,,0.02,376.00,VWS V14.00,2015-05-03 13:31:00,
2015-05-03 08:36:00,65.3,59.3,29.77,South,190,2.0,5.0,81,0.00,,,0.02,390.00,VWS V14.00,2015-05-03 13:36:00,
2015-05-03 08:41:00,65.5,58.8,29.77,SSE,154,5.0,6.0,79,0.00,,,0.02,362.00,VWS V14.00,2015-05-03 13:41:00,
2015-05-03 08:46:00,65.6,58.9,29.77,SSW,206,3.0,7.0,79,0.00,,,0.02,420.00,VWS V14.00,2015-05-03 13:46:00,
2015-05-03 08:51:00,65.9,59.2,29.77,SSE,165,0.0,5.0,79,0.00,,,0.02,439.00,VWS V14.00,2015-05-03 13:51:00,
2015-05-03 08:56:00,66.3,59.2,29.77,SSW,197,1.0,5.0,78,0.00,,,0.02,454.00,VWS V14.00,2015-05-03 13:56:00,
2015-05-03 09:01:00,66.5,58.7,29.77,SSW,199,1.0,8.0,76,0.00,,,0.02,469.00,VWS V14.00,2015-05-03 14:01:00,
2015-05-03 09:06:00,66.8,59.0,29.77,South,190,0.0,7.0,76,0.00,,,0.02,485.00,VWS V14.00,2015-05-03 14:06:00,
2015-05-03 09:11:00,67.0,59.2,29.77,SSW,200,1.0,5.0,76,0.00,,,0.02,501.00,VWS V14.00,2015-05-03 14:11:00,
2015-05-03 09:16:00,67.4,58.8,29.77,SSW,210,4.0,5.0,74,0.00,,,0.02,513.00,VWS V14.00,2015-05-03 14:16:00,
2015-05-03 09:21:00,67.8,59.2,29.77,South,190,0.0,0.0,74,0.00,,,0.02,533.00,VWS V14.00,2015-05-03 14:21:00,
2015-05-03 09:26:00,67.9,59.3,29.77,SSW,204,0.0,5.0,74,0.00,,,0.02,543.00,VWS V14.00,2015-05-03 14:26:00,
2015-05-03 09:31:00,68.2,59.6,29.77,South,176,0.0,5.0,74,0.00,,,0.02,513.00,VWS V14.00,2015-05-03 14:31:00,
2015-05-03 09:36:00,68.6,59.6,29.77,SSW,200,1.0,6.0,73,0.00,,,0.02,561.00,VWS V14.00,2015-05-03 14:36:00,
2015-05-03 09:41:00,68.9,59.1,29.77,South,187,0.0,4.0,71,0.00,,,0.02,592.00,VWS V14.00,2015-05-03 14:41:00,
2015-05-03 09:46:00,69.4,60.4,29.77,SW,222,3.0,6.0,73,0.00,,,0.02,517.00,VWS V14.00,2015-05-03 14:46:00,
2015-05-03 09:51:00,69.9,60.1,29.77,SW,226,0.0,4.0,71,0.00,,,0.02,605.00,VWS V14.00,2015-05-03 14:51:00,
2015-05-03 09:56:00,70.3,59.7,29.77,SSW,211,0.0,6.0,69,0.00,,,0.02,638.00,VWS V14.00,2015-05-03 14:56:00,
2015-05-03 10:01:00,70.7,60.5,29.77,SSE,152,6.0,8.0,70,0.00,,,0.02,671.00,VWS V14.00,2015-05-03 15:01:00,
2015-05-03 10:06:00,71.3,61.0,29.77,South,184,0.0,6.0,70,0.00,,,0.02,647.00,VWS V14.00,2015-05-03 15:06:00,
2015-05-03 10:11:00,71.9,60.8,29.77,SSW,202,0.0,5.0,68,0.00,,,0.02,717.00,VWS V14.00,2015-05-03 15:11:00,
2015-05-03 10:16:00,72.5,60.9,29.77,SSE,162,0.0,5.0,67,0.00,,,0.02,636.00,VWS V14.00,2015-05-03 15:16:00,
2015-05-03 10:21:00,72.8,60.8,29.77,SSW,207,0.0,6.0,66,0.00,,,0.02,543.00,VWS V14.00,2015-05-03 15:21:00,
2015-05-03 10:26:00,72.9,61.3,29.77,SW,236,2.0,5.0,67,0.00,,,0.02,397.00,VWS V14.00,2015-05-03 15:26:00,
2015-05-03 10:31:00,72.9,60.5,29.77,SSW,205,2.0,6.0,65,0.00,,,0.02,503.00,VWS V14.00,2015-05-03 15:31:00,
2015-05-03 10:36:00,73.2,60.7,29.77,SSE,161,4.0,5.0,65,0.00,,,0.02,589.00,VWS V14.00,2015-05-03 15:36:00,
2015-05-03 10:41:00,73.5,61.0,29.77,SSW,213,0.0,5.0,65,0.00,,,0.02,594.00,VWS V14.00,2015-05-03 15:41:00,
2015-05-03 10:46:00,73.9,61.0,29.77,SW,217,0.0,7.0,64,0.00,,,0.02,693.00,VWS V14.00,2015-05-03 15:46:00,
2015-05-03 10:51:00,74.5,60.2,29.77,SW,225,3.0,6.0,61,0.00,,,0.02,765.00,VWS V14.00,2015-05-03 15:51:00,
2015-05-03 10:56:00,75.3,63.2,29.77,SSW,200,6.0,8.0,66,0.00,,,0.02,701.00,VWS V14.00,2015-05-03 15:56:00,
2015-05-03 11:01:00,75.6,61.2,29.77,South,190,4.0,6.0,61,0.00,,,0.02,624.00,VWS V14.00,2015-05-03 16:01:00,
2015-05-03 11:06:00,75.6,60.8,29.77,SSW,198,0.0,5.0,60,0.00,,,0.02,749.00,VWS V14.00,2015-05-03 16:06:00,
2015-05-03 11:11:00,75.6,60.8,29.77,South,182,0.0,7.0,60,0.00,,,0.02,693.00,VWS V14.00,2015-05-03 16:11:00,
2015-05-03 11:16:00,75.8,60.5,29.77,SSW,209,4.0,7.0,59,0.00,,,0.02,761.00,VWS V14.00,2015-05-03 16:16:00,
2015-05-03 11:21:00,76.0,61.1,29.77,South,184,3.0,6.0,60,0.00,,,0.02,800.00,VWS V14.00,2015-05-03 16:21:00,
2015-05-03 11:26:00,76.0,62.5,29.77,SW,230,3.0,8.0,63,0.00,,,0.02,807.00,VWS V14.00,2015-05-03 16:26:00,
2015-05-03 11:31:00,76.1,61.2,29.77,SSW,200,4.0,7.0,60,0.00,,,0.02,817.00,VWS V14.00,2015-05-03 16:31:00,
2015-05-03 11:36:00,76.2,60.4,29.77,SSW,193,0.0,7.0,58,0.00,,,0.02,814.00,VWS V14.00,2015-05-03 16:36:00,
2015-05-03 11:41:00,76.6,62.6,29.77,SW,220,0.0,5.0,62,0.00,,,0.02,842.00,VWS V14.00,2015-05-03 16:41:00,
2015-05-03 11:46:00,77.0,61.6,29.77,SSW,197,0.0,7.0,59,0.00,,,0.02,844.00,VWS V14.00,2015-05-03 16:46:00,
2015-05-03 11:51:00,77.1,60.7,29.76,SSW,200,0.0,7.0,57,0.00,,,0.02,819.00,VWS V14.00,2015-05-03 16:51:00,
2015-05-03 11:56:00,77.3,60.9,29.76,SSW,213,5.0,13.0,57,0.00,,,0.02,643.00,VWS V14.00,2015-05-03 16:56:00,
2015-05-03 12:01:00,77.4,60.5,29.76,South,183,5.0,8.0,56,0.00,,,0.02,842.00,VWS V14.00,2015-05-03 17:01:00,
2015-05-03 12:06:00,77.6,60.7,29.77,SSW,207,4.0,6.0,56,0.00,,,0.02,853.00,VWS V14.00,2015-05-03 17:06:00,
2015-05-03 12:11:00,77.6,60.7,29.76,SSW,205,1.0,8.0,56,0.00,,,0.02,856.00,VWS V14.00,2015-05-03 17:11:00,
2015-05-03 12:16:00,78.0,61.5,29.76,SSW,213,2.0,5.0,57,0.00,,,0.02,872.00,VWS V14.00,2015-05-03 17:16:00,
2015-05-03 12:21:00,78.2,61.7,29.76,SW,225,4.0,8.0,57,0.00,,,0.02,879.00,VWS V14.00,2015-05-03 17:21:00,
2015-05-03 12:26:00,78.4,61.9,29.76,SSW,201,4.0,7.0,57,0.00,,,0.02,877.00,VWS V14.00,2015-05-03 17:26:00,
2015-05-03 12:31:00,78.4,62.9,29.76,SSW,203,2.0,7.0,59,0.00,,,0.02,879.00,VWS V14.00,2015-05-03 17:31:00,
2015-05-03 12:36:00,78.5,62.0,29.76,SSW,204,0.0,10.0,57,0.00,,,0.02,884.00,VWS V14.00,2015-05-03 17:36:00,
2015-05-03 12:41:00,78.8,61.8,29.76,SSW,196,4.0,8.0,56,0.00,,,0.02,879.00,VWS V14.00,2015-05-03 17:41:00,
2015-05-03 12:46:00,79.1,62.1,29.76,SSW,208,5.0,6.0,56,0.00,,,0.02,889.00,VWS V14.00,2015-05-03 17:46:00,
2015-05-03 12:51:00,79.5,61.9,29.76,SSW,199,3.0,8.0,55,0.00,,,0.02,888.00,VWS V14.00,2015-05-03 17:51:00,
2015-05-03 12:56:00,79.6,61.0,29.76,SSW,199,1.0,9.0,53,0.00,,,0.02,884.00,VWS V14.00,2015-05-03 17:56:00,
2015-05-03 13:01:00,79.5,61.4,29.76,South,177,0.0,8.0,54,0.00,,,0.02,882.00,VWS V14.00,2015-05-03 18:01:00,
2015-05-03 13:06:00,79.5,60.9,29.76,South,183,1.0,10.0,53,0.00,,,0.02,881.00,VWS V14.00,2015-05-03 18:06:00,
2015-05-03 13:11:00,79.6,61.0,29.76,SSW,210,6.0,8.0,53,0.00,,,0.02,881.00,VWS V14.00,2015-05-03 18:11:00,
2015-05-03 13:16:00,79.5,61.4,29.76,SW,216,6.0,7.0,54,0.00,,,0.02,881.00,VWS V14.00,2015-05-03 18:16:00,
2015-05-03 13:21:00,79.5,60.3,29.76,SW,228,3.0,9.0,52,0.00,,,0.02,877.00,VWS V14.00,2015-05-03 18:21:00,
2015-05-03 13:26:00,79.5,61.9,29.76,SE,131,7.0,11.0,55,0.00,,,0.02,868.00,VWS V14.00,2015-05-03 18:26:00,
2015-05-03 13:31:00,79.5,60.3,29.76,SSE,165,4.0,9.0,52,0.00,,,0.02,870.00,VWS V14.00,2015-05-03 18:31:00,
2015-05-03 13:36:00,79.6,63.0,29.75,SSW,206,3.0,7.0,57,0.00,,,0.02,870.00,VWS V14.00,2015-05-03 18:36:00,
2015-05-03 13:41:00,79.8,61.7,29.75,SSW,204,6.0,8.0,54,0.00,,,0.02,868.00,VWS V14.00,2015-05-03 18:41:00,
2015-05-03 13:46:00,79.8,61.7,29.75,South,173,5.0,8.0,54,0.00,,,0.02,868.00,VWS V14.00,2015-05-03 18:46:00,
2015-05-03 13:51:00,79.8,62.7,29.75,SSE,166,0.0,7.0,56,0.00,,,0.02,858.00,VWS V14.00,2015-05-03 18:51:00,
2015-05-03 13:56:00,80.0,62.4,29.75,ESE,112,5.0,9.0,55,0.00,,,0.02,870.00,VWS V14.00,2015-05-03 18:56:00,
2015-05-03 14:01:00,80.4,64.3,29.75,SSE,165,2.0,5.0,58,0.00,,,0.02,860.00,VWS V14.00,2015-05-03 19:01:00,
2015-05-03 14:06:00,80.5,61.8,29.75,SSE,150,0.0,9.0,53,0.00,,,0.02,858.00,VWS V14.00,2015-05-03 19:06:00,
2015-05-03 14:11:00,80.3,62.2,29.75,SSE,149,5.0,10.0,54,0.00,,,0.02,846.00,VWS V14.00,2015-05-03 19:11:00,
2015-05-03 14:16:00,80.3,62.2,29.75,South,179,4.0,8.0,54,0.00,,,0.02,840.00,VWS V14.00,2015-05-03 19:16:00,
2015-05-03 14:21:00,80.2,62.1,29.75,South,174,0.0,6.0,54,0.00,,,0.02,842.00,VWS V14.00,2015-05-03 19:21:00,
2015-05-03 14:26:00,80.3,62.2,29.75,SSE,162,0.0,9.0,54,0.00,,,0.02,831.00,VWS V14.00,2015-05-03 19:26:00,
2015-05-03 14:31:00,80.2,62.6,29.75,South,172,1.0,6.0,55,0.00,,,0.02,830.00,VWS V14.00,2015-05-03 19:31:00,
2015-05-03 14:36:00,80.3,61.6,29.74,ESE,120,5.0,9.0,53,0.00,,,0.02,821.00,VWS V14.00,2015-05-03 19:36:00,
2015-05-03 14:41:00,80.3,62.7,29.74,South,186,4.0,6.0,55,0.00,,,0.02,803.00,VWS V14.00,2015-05-03 19:41:00,
2015-05-03 14:46:00,80.3,62.2,29.74,ESE,104,4.0,8.0,54,0.00,,,0.02,805.00,VWS V14.00,2015-05-03 19:46:00,
2015-05-03 14:51:00,80.4,62.8,29.74,SSE,157,1.0,5.0,55,0.00,,,0.02,816.00,VWS V14.00,2015-05-03 19:51:00,
2015-05-03 14:56:00,80.2,61.5,29.74,SSE,148,0.0,6.0,53,0.00,,,0.02,153.00,VWS V14.00,2015-05-03 19:56:00,
2015-05-03 15:01:00,80.6,62.4,29.74,South,187,5.0,7.0,54,0.00,,,0.02,789.00,VWS V14.00,2015-05-03 20:01:00,
2015-05-03 15:06:00,81.2,62.5,29.74,SSW,197,0.0,12.0,53,0.00,,,0.02,775.00,VWS V14.00,2015-05-03 20:06:00,
2015-05-03 15:11:00,81.4,61.5,29.74,South,179,0.0,10.0,51,0.00,,,0.02,705.00,VWS V14.00,2015-05-03 20:11:00,
2015-05-03 15:21:00,81.8,62.5,29.73,SSE,164,5.0,9.0,52,0.00,,,0.02,756.00,VWS V14.00,2015-05-03 20:21:00,
2015-05-03 15:26:00,81.8,63.0,29.73,South,175,9.0,10.0,53,0.00,,,0.02,612.00,VWS V14.00,2015-05-03 20:26:00,
2015-05-03 15:31:00,81.9,63.1,29.73,South,186,0.0,8.0,53,0.00,,,0.02,677.00,VWS V14.00,2015-05-03 20:31:00,
2015-05-03 15:36:00,82.0,62.1,29.73,SSE,156,0.0,9.0,51,0.00,,,0.02,714.00,VWS V14.00,2015-05-03 20:36:00,
2015-05-03 15:41:00,81.9,62.0,29.73,South,174,1.0,10.0,51,0.00,,,0.02,731.00,VWS V14.00,2015-05-03 20:41:00,
2015-05-03 15:46:00,82.0,62.7,29.73,SSW,201,3.0,8.0,52,0.00,,,0.02,193.00,VWS V14.00,2015-05-03 20:46:00,
2015-05-03 15:51:00,81.8,64.1,29.73,SSW,198,3.0,8.0,55,0.00,,,0.02,735.00,VWS V14.00,2015-05-03 20:51:00,
2015-05-03 15:56:00,82.0,62.1,29.73,South,171,0.0,7.0,51,0.00,,,0.02,703.00,VWS V14.00,2015-05-03 20:56:00,
2015-05-03 16:01:00,82.0,62.7,29.73,SSW,202,4.0,9.0,52,0.00,,,0.02,698.00,VWS V14.00,2015-05-03 21:01:00,
2015-05-03 16:06:00,82.2,63.9,29.73,SSE,153,6.0,7.0,54,0.00,,,0.02,679.00,VWS V14.00,2015-05-03 21:06:00,
2015-05-03 16:11:00,82.5,63.7,29.72,SW,221,5.0,7.0,53,0.00,,,0.02,638.00,VWS V14.00,2015-05-03 21:11:00,
2015-05-03 16:16:00,82.8,63.4,29.72,SSE,165,6.0,10.0,52,0.00,,,0.02,606.00,VWS V14.00,2015-05-03 21:16:00,
2015-05-03 16:21:00,83.1,63.7,29.72,South,182,3.0,7.0,52,0.00,,,0.02,657.00,VWS V14.00,2015-05-03 21:21:00,
2015-05-03 16:26:00,82.9,62.9,29.72,SW,232,5.0,8.0,51,0.00,,,0.02,176.00,VWS V14.00,2015-05-03 21:26:00,
2015-05-03 16:31:00,82.8,62.8,29.72,South,171,0.0,8.0,51,0.00,,,0.02,520.00,VWS V14.00,2015-05-03 21:31:00,
2015-05-03 16:36:00,83.0,62.5,29.71,SSE,168,1.0,10.0,50,0.00,,,0.02,635.00,VWS V14.00,2015-05-03 21:36:00,
2015-05-03 16:41:00,83.4,63.4,29.72,South,170,6.0,7.0,51,0.00,,,0.02,591.00,VWS V14.00,2015-05-03 21:41:00,
2015-05-03 16:46:00,83.1,61.4,29.72,SSW,195,3.0,9.0,48,0.00,,,0.02,109.00,VWS V14.00,2015-05-03 21:46:00,
2015-05-03 16:51:00,82.0,61.0,29.72,SSW,205,6.0,9.0,49,0.00,,,0.02,156.00,VWS V14.00,2015-05-03 21:51:00,
2015-05-03 16:56:00,81.6,61.2,29.72,SSW,200,6.0,9.0,50,0.02,,,0.04,394.00,VWS V14.00,2015-05-03 21:56:00,
2015-05-03 17:01:00,82.0,62.1,29.72,SW,222,5.0,7.0,51,0.02,,,0.04,499.00,VWS V14.00,2015-05-03 22:01:00,
2015-05-03 17:06:00,82.3,61.8,29.72,SSW,213,4.0,10.0,50,0.02,,,0.04,431.00,VWS V14.00,2015-05-03 22:06:00,
2015-05-03 17:11:00,82.6,62.7,29.72,SSW,206,5.0,8.0,51,0.02,,,0.04,380.00,VWS V14.00,2015-05-03 22:11:00,
2015-05-03 17:16:00,82.7,61.6,29.72,South,177,5.0,10.0,49,0.02,,,0.04,290.00,VWS V14.00,2015-05-03 22:16:00,